Overall Results: HTC Running Relay

Place Bib Team Category Gun Time Pace Start Div
Place
Div
Total
1 960 The Goodland Mens Open 17:32:55.1 5:20 01:30PM 1 223
2 1108 Bowerman Track Club Corporate Mens Open 17:35:39.2 5:21 01:30PM 1 120
3 1133 Performance Running EKINs 1 Corporate Mixed Open 19:26:36.0 5:55 01:35PM 1 100
4 11 North Queens Runners Mixed Open 19:41:37.8 5:59 01:30PM 1 262
5 107 Heinos Flyers Mens Open 19:55:49.5 6:04 01:30PM 2 223
6 20 Run Long and Prosper Mens Open 19:56:49.6 6:04 01:35PM 3 223
7 1053 Dojo of Pain Mixed Open 20:00:42.3 6:05 01:30PM 2 262
8 381 Team Peter Pan Mixed Open 20:01:43.3 6:06 01:30PM 3 262
9 48 NY Bad Apples Mixed Open 20:05:02.8 6:07 01:35PM 4 262
10 1097 Tarahumara Mixed Corporate Open 20:11:41.8 6:09 01:30PM 2 100
11 1051 Enginerds Mixed Open 20:27:06.8 6:13 01:30PM 5 262
12 19 Roll Tech Mixed Open 20:35:24.4 6:16 01:35PM 6 262
13 1212 LA SAVES TRACK Mixed Open 20:41:20.9 6:18 01:30PM 7 262
14 1211 Heart of Georgia Running Club Mens Open 20:44:51.2 6:19 01:30PM 4 223
15 10 Ad Astra Mens Submasters 20:44:52.1 6:19 01:35PM 1 98
16 1206 The Lostboys Corporate Mixed Open 21:00:54.2 6:24 01:30PM 3 100
17 296 Mount Hoodrats Mixed Open 21:16:39.8 6:28 01:50PM 8 262
18 44 Rogue Racers Mens Submasters 21:18:12.8 6:29 01:45PM 2 98
19 15 Puke and Rally Mixed Submasters 21:21:10.3 6:30 01:35PM 1 135
20 631 Always on Track Mens Open 21:27:46.3 6:32 01:40PM 5 223
21 648 Cloudsurfers Corporate Mens Open 21:38:52.9 6:35 02:20PM 2 120
22 9 RawDawg Racing Mixed Open 21:45:08.4 6:37 01:35PM 9 262
23 742 DOA2 Mens Masters 21:46:17.2 6:37 01:35PM 1 17
24 70 Some Zags Mens Submasters 21:52:26.8 6:39 01:35PM 3 98
25 17 GrandStans Mixed Open 22:04:08.8 6:43 01:35PM 10 262
26 61 Extra Virgins Mens Submasters 22:04:12.8 6:43 01:40PM 4 98
27 49 2 Hot 2 Dangerous Mens Open 22:10:43.9 6:45 01:40PM 6 223
28 16 GE Runners Corporate Mixed Open 22:11:56.3 6:45 01:40PM 4 100
29 952 Doug's Dirty Dozen Mens Open 22:23:09.0 6:49 01:40PM 7 223
30 110 Chabooty Boyz Mens Open 22:34:35.7 6:52 02:45PM 8 223
31 108 Team Joha Womens Submasters 22:37:16.6 6:53 01:40PM 1 18
32 21 White Flag Mixed Masters 22:38:46.4 6:53 01:50PM 1 29
33 2 #3StripeLife Corporate Mens Open 22:40:42.3 6:54 01:40PM 3 120
34 73 Make America Fast Again Mens Open 22:56:03.4 6:59 01:45PM 9 223
35 1109 KnightRunners Corporate Mens Open 23:01:24.3 7:00 01:45PM 4 120
36 997 Catch us if you van Mixed Open 23:08:15.4 7:02 01:40PM 11 262
37 971 Tsinghua Runners in Silicon Valley Mens Masters 23:14:58.7 7:04 01:45PM 2 17
38 969 Player 456 Mixed Open 23:18:10.0 7:05 01:40PM 12 262
39 1 Team Athena Womens Submasters 23:20:13.7 7:06 01:45PM 2 18
40 1193 Trabuco Hills Hobbling Mustangs Mens Open 23:25:34.5 7:08 01:35PM 10 223
41 509 Dead on Arrival Mens Super Masters 23:33:31.2 7:10 01:45PM 1 10
42 1105 BTC Women's Corporate Womens Open 23:35:17.2 7:10 01:45PM 1 6
43 1186 Bye Week or Team Green Corporate Mens Open 23:35:41.7 7:11 01:35PM 5 120
44 23 Nature Boyz Mens Submasters 23:38:13.1 7:11 01:45PM 5 98
45 1047 Worst Pace Scenario Mens Open 23:46:54.6 7:14 02:00PM 11 223
46 60 #GRRLS Womens Open 23:48:13.3 7:14 01:50PM 1 27
47 66 SU Runners (Involuted) Mixed Submasters 23:49:32.4 7:15 01:40PM 2 135
48 268 Misty Mountain Blast Mixed Masters 23:51:12.5 7:15 01:45PM 2 29
49 1106 Performance Running EKIN 2 Corporate Mens Open 23:52:22.7 7:16 01:55PM 6 120
50 39 Running Hungry Mens Open 23:52:27.3 7:16 01:50PM 12 223
51 8 IM SCREAMING Womens Open 23:57:30.4 7:17 01:50PM 2 27
52 1059 Endeavor Mens Open 23:58:06.3 7:17 01:50PM 13 223
53 89 Run and Not Be Weary Mens Masters 23:59:13.9 7:18 01:45PM 3 17
54 41 Precision CastSharks Corporate Mens Open 24:00:49.3 7:18 02:05PM 7 120
55 1032 Fromage sans Voyage Mens Masters 24:09:50.8 7:21 02:30PM 4 17
56 1010 Chase Your Chafe Mixed Submasters 24:13:45.5 7:22 01:45PM 3 135
57 520 Negative Splits and Chill Mens Open 24:14:44.8 7:22 01:55PM 14 223
58 986 Barely Fast Dads Mens Super Masters 24:23:11.5 7:25 01:45PM 2 10
59 25 Intel Gigahurtz Corporate Mens Open 24:29:14.9 7:27 01:50PM 8 120
60 754 The Runaway Zoo Mens Open 24:31:03.7 7:27 07:55AM 15 223
61 58 Masters of the Universe Mens Super Masters 24:31:42.5 7:28 01:50PM 3 10
62 57 Lady And The Gramps Corporate Mens Open 24:32:06.9 7:28 01:50PM 9 120
63 905 Midlife Crisis Presidential Fitness Challenge Mens Submasters 24:37:29.1 7:29 02:35PM 6 98
64 47 The Planks Mens Masters 24:38:43.2 7:30 02:00PM 5 17
65 912 TWELVE OLIVIAS Womens Open 24:45:23.3 7:32 01:50PM 3 27
66 4 Team Bula Mens Submasters 24:47:59.4 7:33 01:50PM 7 98
67 162 We Built This Relay On Sausage Rolls Mens Submasters 24:50:16.9 7:33 01:30PM 8 98
68 1058 Glow For Glory Mens Open 24:58:43.8 7:36 02:30PM 16 223
69 67 Mr. Mojo Risin' Mens Super Masters 25:00:40.3 7:36 01:55PM 4 10
70 18 Spokane Swifts Womens Masters 25:03:21.3 7:37 01:50PM 1 5
71 1016 WE LIKE RUNNING 2.0 Mens Open 25:05:32.7 7:38 01:40PM 17 223
72 767 Up 'N Over Mens Submasters 25:09:20.3 7:39 01:55PM 9 98
73 40 Scrambled Legs and Burnt Toes Mixed Submasters 25:14:28.6 7:41 01:55PM 4 135
74 1221 West is Best Corporate Mens Open 25:20:41.3 7:42 01:35PM 10 120
75 981 NewBee Running Club Mixed Open 25:26:43.8 7:44 02:00PM 13 262
76 1030 Pain Train Adventure Club Mixed Open 25:35:42.4 7:47 01:55PM 14 262
77 27 Big Kahunas Mens Super Masters 25:41:10.4 7:49 02:00PM 5 10
78 726 Columbia Community Mental Health Corporate Mens Open 25:48:18.1 7:51 08:05AM 11 120
79 933 Live Ever Die Never Mens Submasters 25:48:29.0 7:51 02:10PM 10 98
80 86 Dirty Half Dozen +6 Mens Masters 25:49:08.2 7:51 02:20PM 6 17
81 973 Tsinghua Redbud Mixed Submasters 25:51:21.8 7:52 02:05PM 5 135
82 161 Navy Never Fades Mens Open 25:59:39.9 7:54 01:55PM 18 223
83 31 FIGHTING SQUIRRELS Mens Masters 26:02:53.8 7:55 02:15PM 7 17
84 299 Team Legard Mixed Open 26:06:11.6 7:56 01:35PM 15 262
85 26 anything for a night out Mixed Submasters 26:06:37.1 7:56 02:10PM 6 135
86 588 Bourboneers Mixed Submasters 26:07:09.7 7:57 02:15PM 7 135
87 227 Blistering Speed Mens Open 26:13:05.6 7:58 02:20PM 19 223
88 1191 Rural Juror Mixed Open 26:14:21.5 7:59 08:00AM 16 262
89 517 adidas Rolling Blunder Corporate Mens Open 26:15:36.9 7:59 06:35AM 12 120
90 927 Soles of Steel Corporate Mens Open 26:16:10.2 7:59 02:15PM 13 120
91 654 Chasing Beers Mens Open 26:16:18.8 7:59 02:20PM 20 223
92 243 Zoomin FOMO Mens Open 26:17:55.8 8:00 02:35PM 21 223
93 455 THE NEVERMORES Mixed Open 26:20:41.3 8:01 02:05PM 17 262
94 666 The Joggernauts Mens Open 26:21:28.1 8:01 02:20PM 22 223
95 1114 Nike Mathletes Corporate Mens Open 26:22:25.3 8:01 02:00PM 14 120
96 934 Tight Buts and Sweaty Nuts Mens Open 26:23:47.2 8:02 02:40PM 23 223
97 203 Team lululemon Corporate Mixed Open 26:25:11.9 8:02 01:50PM 5 100
98 678 The Wounded Pigeons Mens Submasters 26:25:34.8 8:02 02:30PM 11 98
99 1122 Nike Digital Corporate Mixed Open 26:29:25.2 8:03 03:35AM 6 100
100 875 Finity Group Corporate Mens Open 26:29:40.5 8:03 02:40PM 15 120
101 440 Team MKS Corporate Mens Open 26:31:52.6 8:04 02:55PM 16 120
102 1038 The Fargo Connection Mixed Masters 26:32:55.5 8:04 02:00PM 3 29
103 1201 Back to the Suture 2 Mens Open 26:33:15.8 8:05 02:30PM 24 223
104 995 All Uphill From Here Mixed Submasters 26:33:23.0 8:05 02:55PM 8 135
105 897 Running for Their Lives Mens Open 26:33:32.0 8:05 08:05AM 25 223
106 965 Married Up Mens Submasters 26:34:18.1 8:05 02:30PM 12 98
107 55 Marathon Maniacs Half Fanatics Mixed Masters 26:34:41.1 8:05 02:00PM 4 29
108 846 Turner Construction Corporate Mens Open 26:36:12.8 8:05 04:55AM 17 120
109 920 Fox Chase West Mens Masters 26:39:17.5 8:06 02:05PM 8 17
110 71 Starlin s Angels Corporate Womens Open 26:39:24.5 8:06 01:55PM 2 6
111 388 Mrs. Robinsons AC Since 1991 Mens Open 26:39:49.8 8:07 02:10PM 26 223
112 174 The Half-Centaurs Corporate Mens Open 26:39:57.9 8:07 02:40PM 18 120
113 849 Niagara Bottling Corporate Mens Open 26:41:33.0 8:07 07:30AM 19 120
114 1125 Bowerman Ache Club Corporate Mens Open 26:42:21.2 8:07 07:45AM 20 120
115 614 Long Running Jokes Mens Open 26:42:34.1 8:07 03:20AM 27 223
116 1182 Hood 2 Hazys Mixed Open 26:44:17.8 8:08 03:00AM 18 262
117 990 Just Here For The Beer Mens Open 26:45:50.3 8:08 02:25PM 28 223
118 670 Boss Sports Performance Corporate Mens Open 26:49:18.3 8:09 02:10PM 21 120
119 1060 The Lucky Charms Mixed Submasters 26:51:55.1 8:10 02:10PM 9 135
120 639 Cheribundi Pit Crew Corporate Mixed Open 26:52:12.8 8:10 07:00AM 7 100
121 511 Rock N' Run Mens Open 26:53:12.2 8:11 02:45AM 29 223
122 1012 Kicking Asphalt Elite Mens Submasters 26:53:25.5 8:11 02:55PM 13 98
123 191 Running for Shelter's Last Relay Mens Open 26:54:16.3 8:11 07:55AM 30 223
124 591 Rhino Rocketz Mixed Open 26:54:38.1 8:11 02:00PM 19 262
125 1073 Wolverines Mens Submasters 26:54:46.6 8:11 02:05PM 14 98
126 805 Hood 2 Toast Mixed Open 26:57:42.2 8:12 06:55AM 20 262
127 304 Louisiana Swamp Donkeys Mens Submasters 26:57:53.8 8:12 02:00PM 15 98
128 245 A Pace Only a Mother Could Love Mens Submasters 26:58:05.2 8:12 02:10PM 16 98
129 1065 DASH To Fun Mixed Masters 26:58:40.5 8:12 02:05PM 5 29
130 14 The Fast and the Forty Plus Mixed Masters 26:59:10.2 8:12 02:45PM 6 29
131 958 12 Hangry Friends Mens Submasters 26:59:47.0 8:13 02:45AM 17 98
132 523 The Goonies Mens Masters 27:01:51.9 8:13 02:45PM 9 17
133 181 We All Make It Before Last Call Mixed Submasters 27:02:22.2 8:13 03:15AM 10 135
134 221 RIMG PHOTOFINISHERS Mixed Masters 27:05:29.0 8:14 07:50AM 7 29
135 331 If you can't beat'em...Denim Mens Submasters 27:10:13.9 8:16 02:35PM 18 98
136 283 Delirium Tremens Mixed Masters 27:10:42.4 8:16 02:45PM 8 29
137 800 Cream of the Crop Mens Open 27:12:09.9 8:16 02:25PM 31 223
138 1189 RUN TRG Mixed Open 27:12:14.2 8:16 04:10AM 21 262
139 87 Fine Whine Too Mixed Submasters 27:12:54.5 8:17 02:30AM 11 135
140 555 Grateful Deadlegs Mens Open 27:13:10.7 8:17 02:40PM 32 223
141 78 The Generics Mixed Open 27:13:48.6 8:17 08:05AM 22 262
142 270 Takin' Care of Business Mens Open 27:14:46.0 8:17 03:50AM 33 223
143 1011 Beyond Mens Submasters 27:15:22.6 8:17 02:15PM 19 98
144 192 Wrkshop VN Corporate Mixed Open 27:15:39.1 8:17 02:35AM 8 100
145 1015 Beach From Hill Mens Champion Masters 27:16:10.2 8:18 02:50AM 1 9
146 7 Peter and the WOU wolves Mixed Open 27:16:46.3 8:18 08:00AM 23 262
147 882 Girls on the Run Mixed Open 27:16:58.6 8:18 02:50PM 24 262
148 1037 TeamAbove Mixed Submasters 27:17:26.3 8:18 02:15PM 12 135
149 204 Todd's Trotters Mens Open 27:19:20.1 8:19 05:30AM 34 223
150 909 NC Hammered Mens Submasters 27:20:06.8 8:19 02:30PM 20 98
151 506 Runs With Spatula: In loving memory of Gus Hafner Mens Submasters 27:20:40.8 8:19 02:15PM 21 98
152 765 Yet to be determined Mens Open 27:21:18.2 8:19 04:05AM 35 223
153 115 Team Napa Valley Mixed Open 27:22:20.2 8:19 05:35AM 25 262
154 1022 R-V Industries Corporate Mens Open 27:23:36.7 8:20 04:10AM 22 120
155 316 WASHED UP TO SEASIDE Mixed Submasters 27:24:45.8 8:20 02:45PM 13 135
156 1017 Flying Tigers Mixed Masters 27:26:23.4 8:21 07:50AM 9 29
157 54 Hacker - Architecture & Interior Design Corporate Mixed Open 27:27:05.8 8:21 02:30AM 9 100
158 705 Socially Intubated Corporate Mixed Open 27:28:32.3 8:21 02:40PM 10 100
159 1034 Bonesaw & Friends Mens Open 27:29:34.3 8:22 01:55PM 36 223
160 1018 Crouching Tigers Mens Open 27:29:51.4 8:22 02:35PM 37 223
161 389 Coffman Engineers Corporate Mens Open 27:30:04.7 8:22 02:30PM 23 120
162 650 The Hippocratic oafs Corporate Mixed Open 27:30:11.5 8:22 07:25AM 11 100
163 348 Boston Rejects Mens Open 27:30:48.8 8:22 02:20PM 38 223
164 1091 CAOtic Mens Open 27:30:53.6 8:22 03:05AM 39 223
165 333 Dumb Idea Mixed Open 27:31:38.9 8:22 07:20AM 26 262
166 1063 PAC Attack Corporate Mixed Open 27:33:17.7 8:23 02:50PM 12 100
167 609 Miller Lumberlegs Mens Open 27:34:15.7 8:23 02:45AM 40 223
168 349 Moon Boys and Earth girls Mens Open 27:36:22.5 8:24 03:25AM 41 223
169 435 Rule #76: no excuses run like a champion Mens Open 27:36:48.8 8:24 02:10PM 42 223
170 810 Short Squeeze Our Inflated Assets Mixed Submasters 27:38:11.3 8:24 05:30AM 14 135
171 116 Ultra Guts Mixed Submasters 27:40:31.8 8:25 02:10PM 15 135
172 13 Nature Girlz Womens Masters 27:40:58.4 8:25 07:55AM 2 5
173 880 Runaway Trane Corporate Mixed Open 27:42:02.2 8:25 08:05AM 13 100
174 987 Mt. Nankai Mixed Masters 27:43:08.8 8:26 02:35AM 10 29
175 262 Deadmen Running Mens Open 27:43:21.3 8:26 07:15AM 43 223
176 642 Ripped Sisyphus Mixed Masters 27:43:59.0 8:26 02:35PM 11 29
177 622 Team Pap? Corporate Mens Open 27:45:11.9 8:26 02:40PM 24 120
178 655 Columbia Sportswear Company Corporate Mixed Open 27:45:29.8 8:26 02:10PM 14 100
179 201 Instant Regret Mens Open 27:45:45.8 8:27 02:15PM 44 223
180 337 Thrill of the Chafe Mixed Open 27:49:30.2 8:28 02:50PM 27 262
181 747 Lasso's HTC Richmond Mens Open 27:50:34.4 8:28 02:55PM 45 223
182 291 Fortis Corporate Mens Open 27:51:56.4 8:28 02:30PM 25 120
183 945 Chirunner Mens Masters 27:52:03.7 8:28 01:55PM 10 17
184 1041 Westbounders Mixed Submasters 27:52:27.2 8:29 02:25PM 16 135
185 1215 Rum Like Hell Mixed Open 27:52:31.6 8:29 02:25PM 28 262
186 1020 Fly High Li'l Sebastian Mens Submasters 27:52:35.5 8:29 03:00AM 22 98
187 95 Zephyrs Run Club Corporate Mixed Open 27:53:03.4 8:29 02:45AM 15 100
188 907 Team Alpine Mens Open 27:53:26.4 8:29 03:25AM 46 223
189 970 Gorge Plodders Mixed Open 27:53:39.7 8:29 02:55AM 29 262
190 114 Hillbillies Mens Open 27:54:40.9 8:29 03:00AM 47 223
191 1222 Two Oxen Nine Bullets No Spare Parts Mens Submasters 27:54:48.5 8:29 02:50AM 23 98
192 429 TORCH Runners Mixed Submasters 27:55:10.9 8:29 02:40PM 17 135
193 763 Shake n bake Mens Open 27:55:36.0 8:30 06:10AM 48 223
194 419 Giant Sloth! Mens Open 27:55:43.1 8:30 03:10AM 49 223
195 309 May the Fourth be with you Mixed Open 27:56:06.9 8:30 02:55PM 30 262
196 409 It's Long and Hard Mens Open 27:56:21.6 8:30 03:25AM 50 223
197 305 The Lake Corporate Mens Open 27:56:27.3 8:30 07:55AM 26 120
198 166 POP Rocks Mens Open 27:56:46.2 8:30 02:45PM 51 223
199 647 Runner SoreAsses Mens Open 27:57:26.7 8:30 02:20PM 52 223
200 922 Ope 'Scuse Us Mixed Open 27:57:47.8 8:30 02:35PM 31 262
201 482 Hoffman Fast Trackers Corporate Mens Open 27:58:01.9 8:30 02:55PM 27 120
202 684 Slap Me Some Happy Mens Open 27:58:48.6 8:31 03:20AM 53 223
203 285 Cobra Kai Mixed Submasters 27:59:23.6 8:31 08:05AM 18 135
204 755 vangardium leviosa Mens Open 28:02:06.4 8:32 02:05PM 54 223
205 1132 Six Rings ( Jordan) Corporate Mens Open 28:04:20.7 8:32 02:30PM 28 120
206 456 Corvallis Cruisers Mixed Open 28:05:48.0 8:33 02:15PM 32 262
207 544 Skeleton Crew Mixed Open 28:06:06.5 8:33 02:20PM 33 262
208 1205 Team Pastini Corporate Mixed Open 28:06:30.6 8:33 02:35PM 16 100
209 74 Banana Striders Mens Open 28:07:35.0 8:33 07:30AM 55 223
210 326 Neil s Bachelor Party Mens Submasters 28:09:29.6 8:34 05:10AM 24 98
211 737 The Quadfathers Mens Open 28:12:18.9 8:35 02:00PM 56 223
212 355 Grand & Benedicts Corporate Mens Open 28:12:28.2 8:35 03:35AM 29 120
213 677 Team Kelly Clarkson Mens Submasters 28:12:32.4 8:35 02:20PM 25 98
214 1089 Pet My Poodle Mens Submasters 28:13:18.3 8:35 02:50AM 26 98
215 442 NEP HUSTLERS Mens Open 28:14:12.5 8:35 02:40AM 57 223
216 709 The Vandromeda Galaxy Mixed Submasters 28:14:18.1 8:35 02:30AM 19 135
217 819 Electric Eels Mens Submasters 28:14:45.2 8:35 08:05AM 27 98
218 68 L'Chaim Mixed Submasters 28:15:02.7 8:35 04:10AM 20 135
219 531 Michelob ALTRA Mens Submasters 28:16:47.1 8:36 02:30AM 28 98
220 1181 Broken Waffle Irons Mixed Open 28:19:25.0 8:37 03:05AM 34 262
221 1130 Air Nomads Corporate Mens Open 28:20:06.5 8:37 02:25PM 30 120
222 935 Shut It Down Mixed Open 28:20:12.9 8:37 02:55PM 35 262
223 1190 Smells like Team Spirit Mixed Open 28:24:49.1 8:38 02:30AM 36 262
224 739 Flyin Finns Mens Open 28:24:58.3 8:38 02:40PM 58 223
225 983 GumboFit Mixed Open 28:25:02.6 8:38 03:25AM 37 262
226 582 sole fide Mens Open 28:25:08.0 8:39 02:35AM 59 223
227 28 PDQ Lemmings Mens Super Masters 28:25:19.5 8:39 02:40AM 6 10
228 1131 Run Trill Corporate Mens Open 28:25:52.0 8:39 03:15AM 31 120
229 323 Baja Fresh Burrito Makers Mens Open 28:26:42.8 8:39 03:40AM 60 223
230 537 Run 2 Beer 2 Mens Submasters 28:26:53.2 8:39 04:35AM 29 98
231 76 Nuveen Natural Capital Corporate Mens Open 28:26:57.8 8:39 02:35PM 32 120
232 665 In It For The Money Mens Open 28:29:16.0 8:40 03:45AM 61 223
233 170 Take Bat Bites Seriously Mens Open 28:30:39.2 8:40 02:35PM 62 223
234 504 The ents Mixed Open 28:30:45.3 8:40 04:20AM 38 262
235 937 Baltimore Pacemakers Mens Open 28:32:12.7 8:41 06:35AM 63 223
236 782 Queer Me Beer Me Mixed Open 28:34:16.1 8:41 02:35AM 39 262
237 949 Dell's Dashers Mens Submasters 28:34:18.0 8:41 07:55AM 30 98
238 542 PGE Shock Treatment Corporate Mens Open 28:34:44.4 8:41 02:20PM 33 120
239 144 Like turtles in peanut butter Corporate Mixed Open 28:35:24.0 8:42 06:40AM 17 100
240 325 Team Run Smart Corporate Mens Open 28:35:35.8 8:42 07:20AM 34 120
241 760 Built Different Mens Open 28:36:25.0 8:42 02:35AM 64 223
242 938 Team Kushtaka Mixed Open 28:36:51.7 8:42 07:00AM 40 262
243 52 LP's Got Sole / Logical Position Corporate Mens Open 28:37:33.9 8:42 02:50PM 35 120
244 597 RIP: Runner's In Pain Mens Open 28:37:52.8 8:42 03:30AM 65 223
245 149 RUN THIS WAY Corporate Mixed Open 28:40:39.2 8:43 06:20AM 18 100
246 921 Nippon Prefontaine Reunion Mens Open 28:41:24.3 8:43 07:35AM 66 223
247 852 Tangerine Dream Team Corporate Mens Open 28:42:25.5 8:44 08:05AM 36 120
248 356 E Force Mixed Open 28:43:12.8 8:44 02:30AM 41 262
249 706 Knight Cancer Running Club Corporate Mens Open 28:43:41.1 8:44 03:00AM 37 120
250 229 It's All Gouda Mixed Masters 28:43:53.8 8:44 02:50PM 12 29
251 784 Got the Runs Mens Open 28:44:07.6 8:44 02:50AM 67 223
252 1025 Barbarians Mens Masters 28:44:25.5 8:44 10:09AM 11 17
253 741 Road Rash (The Original) Mixed Open 28:44:39.5 8:44 03:15AM 42 262
254 42 Snow Peak USA Corporate Mens Open 28:47:50.0 8:45 02:10PM 38 120
255 777 Not Last Mens Open 28:48:28.6 8:46 03:55AM 68 223
256 1066 Trail Hoppers Womens Masters 28:51:46.6 8:47 02:00PM 3 5
257 370 Climax Running Team Mens Open 28:52:00.8 8:47 06:15AM 69 223
258 1093 Nike Corporate Mens Open 28:52:13.0 8:47 02:35AM 39 120
259 941 You snooze you lose Mens Open 28:52:42.6 8:47 02:50AM 70 223
260 489 We've Got the Runs Mixed Open 28:52:49.1 8:47 02:30AM 43 262
261 1111 Talkin' Sneaks Corporate Mixed Open 28:52:56.1 8:47 04:00AM 19 100
262 515 Running in the Hood Mixed Open 28:53:25.9 8:47 06:55AM 44 262
263 1195 Sandy High School/Foot Fungus Among Us Mens Open 28:54:13.7 8:47 04:35AM 71 223
264 135 Hood to Toast Mens Open 28:54:17.8 8:47 07:10AM 72 223
265 796 Third Leg Is The Hardest Mens Open 28:55:36.2 8:48 04:40AM 73 223
266 840 Coldstream Corporate Mixed Open 28:56:51.5 8:48 05:15AM 20 100
267 788 Long-Distance Relay-tionship Mens Submasters 28:56:57.5 8:48 04:10AM 31 98
268 569 Silver and Declining Mens Open 28:57:28.9 8:48 03:05AM 74 223
269 241 Rest While You Jog Mens Submasters 28:57:32.2 8:48 02:50PM 32 98
270 427 Between Walk and a Hard Pace Mens Open 28:58:03.2 8:49 03:05AM 75 223
271 775 Team Sorelax Mens Open 28:58:44.6 8:49 03:00AM 76 223
272 1001 Tsinghua Runners in Bay Area Mixed Submasters 28:59:38.7 8:49 01:45PM 21 135
273 720 Muumuu Cruu Mens Submasters 29:00:15.0 8:49 03:45AM 33 98
274 762 Bod Squad Season IV Mixed Open 29:00:18.8 8:49 03:10AM 45 262
275 1126 KEEP ON CHUCKIN' Corporate Mixed Open 29:01:27.5 8:50 02:30AM 21 100
276 926 NOLA King Cakes Mixed Submasters 29:02:31.2 8:50 02:35PM 22 135
277 891 Team Yei Mens Open 29:02:35.7 8:50 08:05AM 77 223
278 603 Old Crazy Runners Mens Submasters 29:03:15.3 8:50 06:25AM 34 98
279 605 Going Coastal Mixed Submasters 29:03:17.7 8:50 03:30AM 23 135
280 901 WTF Mens Open 29:04:22.3 8:50 03:35AM 78 223
281 914 Tallman Track Club Mixed Submasters 29:06:07.5 8:51 03:30AM 24 135
282 485 2 Pooped 2 Pass U Mixed Open 29:06:27.6 8:51 03:45AM 46 262
283 5 Where My Beaches At Mixed Masters 29:07:39.3 8:51 03:30AM 13 29
284 314 Return of the Asphalt Warriors Mixed Open 29:09:11.2 8:52 03:30AM 47 262
285 138 NXT Level Fitness Mens Submasters 29:09:22.8 8:52 04:35AM 35 98
286 1054 Prairie Wolves Mixed Masters 29:09:45.3 8:52 03:10AM 14 29
287 172 Schneckengruven Mens Champion Masters 29:10:32.9 8:52 03:35AM 2 9
288 459 Team Snacks Mens Open 29:11:11.4 8:53 06:25AM 79 223
289 776 Old Blue Mens Champion Masters 29:11:15.8 8:53 02:25PM 3 9
290 735 Torch Runners xxx Mixed Submasters 29:11:17.4 8:53 07:40AM 25 135
291 1057 Wahoo Blue Thunder Unicorn Fire Bunnies Corporate Mens Open 29:11:40.6 8:53 02:50AM 40 120
292 359 From Rags 2 Bitches Mens Open 29:12:40.2 8:53 08:05AM 80 223
293 690 Michael Scott's Dunder Mifflin Fun Run Mens Submasters 29:13:19.4 8:53 03:40AM 36 98
294 595 The Village Idiots Mens Open 29:13:41.2 8:53 04:40AM 81 223
295 533 Beep! Beep! Behind you! Mixed Open 29:15:22.6 8:54 03:25AM 48 262
296 551 Amelia Ulsh Mixed Open 29:17:20.3 8:54 04:50AM 49 262
297 913 TLDR Mixed Open 29:17:37.2 8:54 03:20AM 50 262
298 1208 charity: water Mixed Open 29:18:09.5 8:55 04:25AM 51 262
299 399 Food To Toast Mens Open 29:18:45.4 8:55 03:05AM 82 223
300 630 Yacht Life Mixed Submasters 29:18:52.7 8:55 03:50AM 26 135
301 1217 TEAM ULTRA Corporate Mixed Open 29:19:33.8 8:55 02:55AM 22 100
302 6 70ROCKS Mens Champion Masters 29:20:09.9 8:55 08:05AM 4 9
303 379 Race Vantura Sweat Detectives Mixed Open 29:20:36.6 8:55 02:30AM 52 262
304 697 Extremely Warn Corporate Mens Open 29:21:28.9 8:56 04:50AM 41 120
305 541 LeineRunners Mixed Submasters 29:21:40.5 8:56 04:10AM 27 135
306 1035 Blackpink Mixed Masters 29:22:19.6 8:56 03:10AM 15 29
307 811 Midwestern Glory Mens Open 29:22:22.8 8:56 06:30AM 83 223
308 566 Left to Our Own Devices Corporate Mens Open 29:22:38.2 8:56 05:10AM 42 120
309 244 The Spaghetti Yetis Mens Open 29:23:02.0 8:56 03:35AM 84 223
310 438 Hardly Runners Mens Open 29:23:11.8 8:56 03:55AM 85 223
311 79 Youthful Wisdom Mens Open 29:23:38.5 8:56 06:35AM 86 223
312 528 Rip Van Stinkle Mens Open 29:23:56.4 8:56 08:05AM 87 223
313 1199 Just-in the Nick of Time: A Celebration of Justins and Nicks Mens Submasters 29:23:57.8 8:56 03:15AM 37 98
314 329 Red Dress Express Too! Mixed Submasters 29:24:19.7 8:56 05:45AM 28 135
315 674 Off Like a Prom Dress Mixed Open 29:25:10.0 8:57 03:00AM 53 262
316 224 Athleting to the Max Corporate Mens Open 29:25:28.5 8:57 06:45AM 43 120
317 703 Roseburg Forest Products Corporate Mens Open 29:25:44.3 8:57 05:00AM 44 120
318 451 James Lutes Team Year 6 Mens Open 29:25:44.3 8:57 07:40AM 88 223
319 574 Brazilian Breast Cancer Connection Mixed Masters 29:26:28.5 8:57 06:35AM 16 29
320 643 MAC Staff Crew Corporate Mens Open 29:27:33.0 8:57 04:35AM 45 120
321 1128 Van Full of Purvs Corporate Womens Open 29:28:31.4 8:58 06:05AM 3 6
322 1107 Jog-a-thon Legends Corporate Mixed Open 29:28:31.4 8:58 03:20AM 23 100
323 421 Steve White Homes Mens Open 29:28:42.1 8:58 02:45AM 89 223
324 571 Team Rev Up Mens Submasters 29:29:21.4 8:58 02:50AM 38 98
325 100 Cropdusters Mens Submasters 29:30:39.7 8:58 07:45AM 39 98
326 328 Team New York Life Mens Open 29:31:22.8 8:59 02:50AM 90 223
327 543 Rock n Roll n Run Too Mens Open 29:31:26.9 8:59 07:35AM 91 223
328 718 Vinerunners Mixed Submasters 29:32:12.8 8:59 03:35AM 29 135
329 274 Team Cosmos Mens Open 29:32:42.3 8:59 06:20AM 92 223
330 211 Dodge Duck Dip Dive Run Mens Submasters 29:32:49.2 8:59 03:55AM 40 98
331 572 Repeat Spawners Mixed Submasters 29:32:52.8 8:59 03:30AM 30 135
332 82 Team Bolt Tape Mens Masters 29:33:03.8 8:59 05:20AM 12 17
333 532 Just Keep Running Mens Open 29:33:17.2 8:59 07:10AM 93 223
334 841 Cresa Portland Mixed Open 29:33:25.8 8:59 03:40AM 54 262
335 832 Scrambled Legs Mixed Open 29:33:52.3 8:59 03:50AM 55 262
336 1085 Kickin assphalt Mixed Submasters 29:34:34.2 9:00 06:05AM 31 135
337 589 The Weekenders Mixed Submasters 29:34:37.7 9:00 05:35AM 32 135
338 924 11 shoddies 1 naughty Mens Open 29:35:21.9 9:00 07:30AM 94 223
339 210 Fast As Duck Mens Open 29:36:31.0 9:00 04:40AM 95 223
340 77 Casual Athletes Mixed Open 29:36:43.9 9:00 03:00AM 56 262
341 319 Team ORNECO Mens Submasters 29:38:56.3 9:01 03:45AM 41 98
342 369 Anarchist Jurisdiction Mixed Masters 29:40:09.9 9:01 02:45AM 17 29
343 251 If You Build It We Will Run Corporate Mens Open 29:40:50.4 9:02 06:30AM 46 120
344 1005 Team More Cowbell Mixed Submasters 29:41:13.7 9:02 02:50AM 33 135
345 505 ODOC Leg Irons Corporate Mens Open 29:41:50.7 9:02 02:55AM 47 120
346 799 Cheaper by the Dozen Mens Open 29:42:20.3 9:02 04:00AM 96 223
347 63 Flossaraptors Mixed Open 29:42:21.6 9:02 04:35AM 57 262
348 884 MarketPacers Corporate Mens Open 29:42:53.6 9:02 06:55AM 48 120
349 216 Running Commando Mens Submasters 29:43:06.3 9:02 04:45AM 42 98
350 88 The Original Roads Scholars Mens Open 29:43:25.5 9:02 05:00AM 97 223
351 976 Running the Numbers Corporate Mixed Open 29:43:35.7 9:02 03:35AM 24 100
352 142 I-Be-Pro-FUN Mens Submasters 29:43:36.4 9:02 04:45AM 43 98
353 475 Running Is the Easy Part Mens Submasters 29:44:06.6 9:03 03:40AM 44 98
354 1119 Nike Connected Marketplace Corporate Mixed Open 29:45:06.9 9:03 06:40AM 25 100
355 1061 Ravens in the Hood Corporate Mixed Open 29:45:14.4 9:03 07:05AM 26 100
356 327 Will Power Mixed Submasters 29:45:27.4 9:03 06:00AM 34 135
357 1019 Over 40 Mens Masters 29:46:16.0 9:03 04:15AM 13 17
358 1046 Snow Wolves Mens Submasters 29:46:47.6 9:03 02:55AM 45 98
359 820 Flat Out Force Mens Submasters 29:47:27.5 9:04 03:45AM 46 98
360 943 The Knockouts Mens Open 29:47:40.5 9:04 04:30AM 98 223
361 1070 Win or Booze Mens Submasters 29:47:40.8 9:04 03:00AM 47 98
362 362 Skanska running up THAT hill Mens Open 29:48:47.7 9:04 03:50AM 99 223
363 256 Honey Badgers Mens Open 29:50:11.6 9:04 03:20AM 100 223
364 250 2 Dozen Scrambled Legs Mixed Submasters 29:50:29.4 9:04 04:25AM 35 135
365 414 Happy Runners Mixed Open 29:50:47.7 9:05 06:40AM 58 262
366 641 Still Hurtin For Certain Mens Open 29:51:13.2 9:05 02:40AM 101 223
367 804 Team Quake and Bake Mens Open 29:52:05.7 9:05 02:35AM 102 223
368 465 Wildebeasts Mixed Submasters 29:54:22.0 9:06 02:40AM 36 135
369 942 Never Tire'd of Running Mens Submasters 29:54:29.9 9:06 02:45AM 48 98
370 831 Organ Mountain Warriors Mens Open 29:54:54.9 9:06 02:45AM 103 223
371 916 Poi Dogs Mixed Submasters 29:55:52.3 9:06 04:40AM 37 135
372 559 The Things You Do for Love Mens Open 29:56:11.6 9:06 05:05AM 104 223
373 199 The Struggle is Real Mixed Open 29:57:10.0 9:06 04:40AM 59 262
374 152 Sisters and Some Misters Mixed Open 29:57:12.0 9:06 07:30AM 60 262
375 335 Tillamook Babyloafers Corporate Mens Open 29:57:15.0 9:06 04:25AM 49 120
376 711 Comatoes Corporate Mens Open 29:57:25.8 9:07 02:40AM 50 120
377 1079 Mother Runner Womens Submasters 29:58:08.0 9:07 07:40AM 3 18
378 561 Book N It Corporate Mens Open 29:58:55.5 9:07 03:30AM 51 120
379 1099 GSA Roadstars Corporate Mens Open 29:59:14.4 9:07 03:00AM 52 120
380 610 503 Run Club Mixed Open 29:59:24.1 9:07 03:50AM 61 262
381 317 Philomath Phans of the Phartlek Mixed Open 29:59:49.3 9:07 05:15AM 62 262
382 145 Oxygen Deficit Mens Open 29:59:56.9 9:07 04:50AM 105 223
383 53 Dead Jocks in a Box Mens Champion Masters 30:01:06.3 9:08 08:05AM 5 9
384 12 Big Daddy's Mens Super Masters 30:01:38.2 9:08 02:35AM 7 10
385 580 Team Runderpants Mixed Submasters 30:02:09.9 9:08 02:30AM 38 135
386 962 Kobra KAI Corporate Mixed Open 30:03:05.7 9:08 06:15AM 27 100
387 367 Pooh's Honey Bucket Adventure Mens Submasters 30:03:10.8 9:08 05:55AM 49 98
388 834 Swinerton Corporate Mens Open 30:03:11.3 9:08 06:25AM 53 120
389 963 The VanGuards Mens Open 30:03:53.9 9:09 05:10AM 106 223
390 964 Press On Run Club Womens Open 30:04:01.6 9:09 04:05AM 4 27
391 365 Go With Your Gut Mixed Open 30:05:03.7 9:09 02:30AM 63 262
392 955 Drinkers with a Running Problem Mixed Masters 30:05:12.1 9:09 06:50AM 18 29
393 644 MAC Member Crew Corporate Mixed Open 30:05:30.7 9:09 02:40AM 28 100
394 1228 Outrun Karen Corporate Mens Open 30:05:38.8 9:09 05:25AM 54 120
395 434 Anning-Johnson Company Mens Open 30:06:18.1 9:09 04:15AM 107 223
396 984 The Honey Buckets: because we're full of sh*t Mixed Open 30:07:15.0 9:10 04:35AM 64 262
397 461 adidas #ShowMeYourBoost Corporate Mixed Open 30:07:30.5 9:10 05:40AM 29 100
398 387 The Good The Bad and The Dogged Corporate Mixed Open 30:08:06.2 9:10 04:15AM 30 100
399 324 You Can Run But You Can't Hide Mixed Open 30:08:18.2 9:10 05:20AM 65 262
400 903 Ladies and The Buffs Mixed Masters 30:08:29.6 9:10 04:10AM 19 29
401 944 NO REGRETS Mixed Submasters 30:11:34.7 9:11 04:00AM 39 135
402 1013 Whose Leg is it Anyway? Corporate Mens Open 30:11:39.9 9:11 06:20AM 55 120
403 1087 12Pac Mens Submasters 30:11:40.4 9:11 04:40AM 50 98
404 826 Encierro Mens Open 30:12:13.4 9:11 08:05AM 108 223
405 929 Last Chance Mens Open 30:12:20.3 9:11 03:45AM 109 223
406 676 Doing Great Mens Open 30:12:56.5 9:11 04:20AM 110 223
407 1102 WD+C Crusaders Corporate Mens Open 30:14:14.4 9:12 03:10AM 56 120
408 402 Junk In The Trunk Mens Open 30:14:48.9 9:12 06:10AM 111 223
409 242 Thermo Fisher NanoRunners Corporate Mens Open 30:15:05.0 9:12 04:45AM 57 120
410 902 Team Ohana Mixed Open 30:15:08.8 9:12 02:35AM 66 262
411 169 Vag-inauts Mixed Open 30:15:52.1 9:12 02:40AM 67 262
412 403 Dirty Sandbaggers Mens Open 30:16:05.2 9:12 03:55AM 112 223
413 752 Live Heads Up Mens Open 30:17:40.3 9:13 03:45AM 113 223
414 430 Whisker Biscuits Mens Open 30:18:02.8 9:13 07:10AM 114 223
415 883 Schnitz N Giggles Corporate Mens Open 30:18:22.8 9:13 04:05AM 58 120
416 585 Little Red Running Coast Mixed Open 30:18:34.3 9:13 03:15AM 68 262
417 439 Twelve Geeks A Runnin' Mens Submasters 30:18:52.9 9:13 05:45AM 51 98
418 484 Andiamo Mens Open 30:19:51.5 9:13 02:40AM 115 223
419 1004 Team Samsquatchy Mixed Open 30:20:40.3 9:14 07:55AM 69 262
420 563 Free Belarus Mixed Submasters 30:21:00.0 9:14 05:40AM 40 135
421 749 Thor's Lesser Known Norse Gods Mixed Open 30:21:05.9 9:14 03:50AM 70 262
422 794 Keep Calm & Run On Mixed Open 30:21:27.0 9:14 04:10AM 71 262
423 671 Seismic Wave Corporate Mens Open 30:21:50.3 9:14 04:55AM 59 120
424 376 DEA Lightning Slugs Mens Open 30:22:02.1 9:14 06:10AM 116 223
425 494 Sea Otterzzz Mens Open 30:22:03.7 9:14 05:00AM 117 223
426 807 Close The Gap Mens Open 30:22:12.2 9:14 06:55AM 118 223
427 29 PKU Pan-America Mixed Masters 30:22:27.5 9:14 02:35AM 20 29
428 721 Motley Gu Mixed Open 30:24:11.1 9:15 02:55AM 72 262
429 946 Running Into Glass Doors Mixed Open 30:24:14.6 9:15 05:00AM 73 262
430 552 Snake's Got A Leg Mens Submasters 30:24:16.1 9:15 03:55AM 52 98
431 1135 Nike Firstline & Fine Corporate Mixed Open 30:25:58.0 9:15 04:30AM 31 100
432 982 PKU86 Mens Super Masters 30:26:15.4 9:15 02:45AM 8 10
433 417 Team TILF Mens Open 30:27:26.3 9:16 05:25AM 119 223
434 167 One More Mile Mixed Open 30:27:37.5 9:16 04:15AM 74 262
435 341 Where Does the 5K Start? Mixed Open 30:27:45.9 9:16 04:00AM 75 262
436 512 Pace Makers Mens Open 30:28:01.6 9:16 03:00AM 120 223
437 238 Kershaw Knives Corporate Mens Open 30:28:27.3 9:16 03:25AM 60 120
438 1214 Chafin the Dream Mixed Open 30:28:41.1 9:16 04:30AM 76 262
439 159 SPEEDGOATS Mixed Open 30:29:43.4 9:16 04:50AM 77 262
440 894 Rossi's Angels Mens Open 30:30:18.5 9:17 08:05AM 121 223
441 601 Heaven Help Us Mens Open 30:31:08.5 9:17 05:10AM 122 223
442 382 The Super Delegates Mens Open 30:31:10.9 9:17 07:00AM 123 223
443 447 Electric Shorts Corporate Mens Open 30:31:19.9 9:17 03:40AM 61 120
444 338 Hot Stink Mens Submasters 30:32:07.7 9:17 06:20AM 53 98
445 979 Results Fitness Run Our Mouths Mixed Open 30:32:18.5 9:17 05:15AM 78 262
446 538 Moss Adams Corporate Mens Open 30:32:35.0 9:17 04:25AM 62 120
447 263 Oops...We Got The Poops Mens Open 30:33:39.5 9:18 06:05AM 124 223
448 672 I've Made a Huge Mistake Mens Open 30:34:03.7 9:18 04:05AM 125 223
449 740 Bigfoot Chasers Mixed Open 30:34:31.3 9:18 05:05AM 79 262
450 959 12 Hangry Women Womens Submasters 30:34:47.1 9:18 03:00AM 4 18
451 1014 Like Fun But Different Mens Submasters 30:35:59.7 9:18 04:10AM 54 98
452 1116 Blackdogs Corporate Mixed Open 30:36:32.0 9:18 04:30AM 32 100
453 996 Turkey Legs Mixed Open 30:36:42.2 9:18 03:55AM 80 262
454 780 Banana Splits Mixed Open 30:36:48.4 9:19 07:00AM 81 262
455 881 Byte Out Hunger Mens Open 30:36:58.9 9:19 06:15AM 126 223
456 200 We Can Dig It Corporate Mens Open 30:37:13.0 9:19 03:35AM 63 120
457 320 SOLE-mates Mens Open 30:37:55.4 9:19 03:00AM 127 223
458 65 Desperate Housewives Womens Super Masters 30:37:56.3 9:19 05:30AM 1 3
459 837 Lawn Gone and Hauling Grass Corporate Mens Open 30:38:09.0 9:19 07:05AM